Time;durP1;ratioP1;P1;durP2;ratioP2;P2;SDS_P1;SDS_P2;PMS_P1;PMS_P2;Temp;Humidity;BMP_temperature;BMP_pressure;BME280_temperature;BME280_humidity;BME280_pressure;Samples;Min_cycle;Max_cycle;Signal;HPM_P1;HPM_P2
2022/01/21 00:01:50;;;;;;;11.48;2.55;;;;;;;1.45;94.19;99999.50;5028110;28;20018;-67
2022/01/21 00:04:15;;;;;;;13.20;2.97;;;;;;;1.47;93.94;100003.03;5028416;28;20022;-67
2022/01/21 00:06:41;;;;;;;7.05;2.25;;;;;;;1.52;93.90;100001.53;5028048;28;20028;-67
2022/01/21 00:09:07;;;;;;;5.20;2.17;;;;;;;1.57;93.95;99997.38;5028157;28;20089;-67
2022/01/21 00:11:34;;;;;;;11.13;2.22;;;;;;;1.61;93.56;100001.84;5027878;28;20104;-67
2022/01/21 00:13:59;;;;;;;5.32;1.90;;;;;;;1.67;93.50;100002.06;5028159;28;20061;-67
2022/01/21 00:16:27;;;;;;;10.35;3.47;;;;;;;1.70;93.56;100003.09;5027815;28;20313;-67
2022/01/21 00:19:04;;;;;;;15.13;2.30;;;;;;;1.78;93.28;100005.97;5027721;28;20018;-66
2022/01/21 00:32:28;;;;;;;7.57;1.63;;;;;;;1.92;92.49;100005.63;5027180;28;20024;-67
2022/01/21 00:34:54;;;;;;;8.30;2.55;;;;;;;1.89;93.01;100002.03;5027643;28;20089;-67
2022/01/21 00:37:21;;;;;;;10.18;2.72;;;;;;;1.88;93.10;100002.88;5027582;28;20084;-67
2022/01/21 00:39:52;;;;;;;17.20;3.50;;;;;;;1.84;93.51;99998.41;5027596;28;20089;-67
2022/01/21 00:44:51;;;;;;;12.32;2.38;;;;;;;1.70;94.26;99991.81;5025705;28;20060;-67
2022/01/21 00:47:16;;;;;;;11.20;2.17;;;;;;;1.66;94.14;99987.34;5027685;28;20033;-67
2022/01/21 00:49:42;;;;;;;11.65;3.53;;;;;;;1.69;93.79;99977.97;5027512;28;20022;-67
2022/01/21 00:52:07;;;;;;;17.83;2.53;;;;;;;1.69;93.85;99975.38;5027451;28;20022;-67
2022/01/21 00:54:33;;;;;;;12.27;2.42;;;;;;;1.73;93.79;99978.94;5027167;28;20217;-67
2022/01/21 00:56:58;;;;;;;11.77;2.20;;;;;;;1.69;93.99;99992.66;5027188;28;20045;-67
2022/01/21 00:59:24;;;;;;;7.85;1.88;;;;;;;1.60;94.37;99989.72;5027087;28;20209;-67
2022/01/21 01:01:49;;;;;;;9.20;2.08;;;;;;;1.67;94.48;99986.50;5027529;28;20018;-66
2022/01/21 01:04:15;;;;;;;6.55;2.35;;;;;;;1.64;94.24;99986.38;5026927;28;20082;-67
2022/01/21 01:06:41;;;;;;;4.88;1.88;;;;;;;1.60;94.57;99997.50;5026962;28;20025;-67
2022/01/21 01:09:06;;;;;;;11.15;2.38;;;;;;;1.67;94.19;99996.88;5025843;28;20033;-67
2022/01/21 01:22:25;;;;;;;15.88;1.85;;;;;;;1.50;95.15;100008.34;5027581;28;20145;-67
2022/01/21 01:30:00;;;;;;;3.72;1.50;;;;;;;1.50;94.99;100016.13;5027571;28;20033;-67
2022/01/21 01:32:28;;;;;;;13.05;2.88;;;;;;;1.51;94.91;100012.69;5027412;28;20048;-67
2022/01/21 01:34:54;;;;;;;10.30;2.35;;;;;;;1.51;94.83;100025.69;5027760;28;20322;-67
2022/01/21 01:37:37;;;;;;;8.95;1.48;;;;;;;1.51;94.42;100023.09;5027340;28;20025;-67
2022/01/21 01:40:16;;;;;;;8.38;1.67;;;;;;;1.52;94.70;100027.47;5027263;28;20032;-67
2022/01/21 01:50:59;;;;;;;4.50;1.67;;;;;;;1.53;94.78;100030.13;5026178;28;20024;-67
2022/01/21 01:53:40;;;;;;;7.47;1.80;;;;;;;1.50;94.86;100019.63;5026326;28;20022;-67
2022/01/21 01:56:08;;;;;;;7.22;1.70;;;;;;;1.47;95.11;100029.00;5025191;28;20029;-67
2022/01/21 01:58:36;;;;;;;9.43;1.75;;;;;;;1.50;94.76;100039.47;5026227;28;20021;-67
2022/01/21 02:01:02;;;;;;;7.20;2.15;;;;;;;1.48;95.02;100030.75;5026023;28;20363;-67
2022/01/21 02:03:27;;;;;;;13.13;2.17;;;;;;;1.50;95.16;100023.91;5024352;28;20213;-67
2022/01/21 02:05:53;;;;;;;3.67;1.83;;;;;;;1.47;95.34;100023.81;5024691;28;20045;-67
2022/01/21 02:08:18;;;;;;;11.95;2.35;;;;;;;1.42;95.38;100020.13;5024238;28;20017;-67
2022/01/21 02:10:43;;;;;;;6.78;1.80;;;;;;;1.36;95.37;100025.13;5024492;28;20025;-67
2022/01/21 02:13:27;;;;;;;8.85;2.15;;;;;;;1.31;95.53;100027.53;5024450;28;20032;-67
2022/01/21 02:16:09;;;;;;;15.07;3.13;;;;;;;1.25;95.52;100027.28;5024564;28;20017;-67
2022/01/21 02:21:56;;;;;;;10.75;1.92;;;;;;;1.10;95.45;100015.41;5023167;28;20020;-67
2022/01/21 02:24:21;;;;;;;11.25;2.13;;;;;;;0.99;95.48;100014.09;5018299;28;20100;-67
2022/01/21 02:26:48;;;;;;;7.30;1.52;;;;;;;0.91;95.41;100015.50;5023383;28;20261;-67
2022/01/21 02:29:26;;;;;;;12.95;2.45;;;;;;;0.81;95.78;100003.88;5023979;28;20052;-67
2022/01/21 02:31:51;;;;;;;15.63;3.00;;;;;;;0.73;96.12;100013.03;5023791;28;20063;-67
2022/01/21 02:34:17;;;;;;;4.15;1.83;;;;;;;0.68;95.64;100008.50;5023944;28;20045;-67
2022/01/21 02:36:42;;;;;;;3.80;1.33;;;;;;;0.59;95.91;100002.94;5024084;28;20213;-67
2022/01/21 02:39:08;;;;;;;10.95;2.55;;;;;;;0.61;95.81;100011.66;5023968;28;20022;-67
2022/01/21 02:41:36;;;;;;;6.40;1.52;;;;;;;0.61;96.38;100012.56;5023675;28;20028;-67
2022/01/21 02:44:01;;;;;;;9.30;2.08;;;;;;;0.65;96.60;100018.72;5023605;28;20026;-67
2022/01/21 02:46:27;;;;;;;7.93;1.65;;;;;;;0.71;96.75;100026.75;5023673;28;20071;-67
2022/01/21 02:48:53;;;;;;;4.10;1.30;;;;;;;0.75;97.01;100020.88;5023949;28;20092;-67
2022/01/21 02:51:19;;;;;;;6.13;2.13;;;;;;;0.81;96.81;100021.13;5023677;28;20387;-67
2022/01/21 02:56:10;;;;;;;5.68;1.70;;;;;;;0.90;96.65;100026.69;5023575;28;20012;-67
2022/01/21 02:58:36;;;;;;;8.57;1.90;;;;;;;0.93;96.47;100027.72;5023863;28;20025;-67
2022/01/21 03:01:03;;;;;;;4.43;1.63;;;;;;;0.98;96.72;100030.50;5023749;28;20076;-67
2022/01/21 03:03:28;;;;;;;8.38;1.83;;;;;;;1.03;96.65;100034.13;5023660;28;20044;-67
2022/01/21 03:05:54;;;;;;;6.03;1.80;;;;;;;1.07;96.39;100041.19;5023547;28;20021;-67
2022/01/21 03:08:19;;;;;;;6.70;1.65;;;;;;;1.10;96.47;100041.31;5023641;28;20042;-67
2022/01/21 03:10:44;;;;;;;2.45;1.20;;;;;;;1.12;96.21;100039.69;5023401;28;20024;-67
2022/01/21 03:13:10;;;;;;;5.68;2.13;;;;;;;1.12;95.83;100047.47;5023473;28;20194;-67
2022/01/21 03:15:35;;;;;;;4.15;2.22;;;;;;;1.15;95.93;100051.09;5023236;28;20084;-67
2022/01/21 03:18:01;;;;;;;8.32;1.08;;;;;;;1.18;96.31;100060.69;5023374;28;20022;-67
2022/01/21 03:20:26;;;;;;;8.40;2.17;;;;;;;1.23;96.09;100049.66;5023486;28;20109;-67
2022/01/21 03:22:51;;;;;;;3.00;1.20;;;;;;;1.25;96.32;100047.13;5023354;28;20060;-67
2022/01/21 03:25:17;;;;;;;9.70;2.10;;;;;;;1.26;96.13;100043.72;5023297;28;20067;-67
2022/01/21 03:27:42;;;;;;;8.38;2.20;;;;;;;1.27;96.16;100041.19;5023137;28;20360;-67
2022/01/21 03:30:09;;;;;;;2.55;1.60;;;;;;;1.30;95.88;100045.63;5023112;28;20049;-67
2022/01/21 03:32:35;;;;;;;6.25;2.45;;;;;;;1.31;95.57;100045.69;5023495;28;20137;-67
2022/01/21 03:35:01;;;;;;;6.65;1.75;;;;;;;1.33;95.26;100048.34;5025927;28;20253;-67
2022/01/21 03:37:26;;;;;;;6.43;1.40;;;;;;;1.31;95.18;100052.56;5027242;28;20041;-67
2022/01/21 03:39:52;;;;;;;15.27;1.70;;;;;;;1.31;95.26;100057.75;5027162;28;20022;-67
2022/01/21 03:42:17;;;;;;;5.53;2.65;;;;;;;1.31;94.88;100042.19;5027297;28;20028;-67
2022/01/21 03:44:44;;;;;;;20.48;2.30;;;;;;;1.29;94.55;100033.44;5027013;28;20045;-67
2022/01/21 03:47:09;;;;;;;8.35;1.70;;;;;;;1.16;94.60;100032.09;5027205;28;20033;-67
2022/01/21 03:49:41;;;;;;;8.07;1.85;;;;;;;1.02;94.73;100032.38;5026956;28;20026;-67
2022/01/21 03:52:08;;;;;;;12.13;1.83;;;;;;;0.96;94.36;100037.31;5027443;28;20025;-67
2022/01/21 03:54:35;;;;;;;9.30;2.08;;;;;;;0.77;94.41;100040.88;5027822;28;20029;-67
2022/01/21 03:57:01;;;;;;;7.25;1.80;;;;;;;0.63;94.97;100046.31;5028801;28;20076;-67
2022/01/21 03:59:27;;;;;;;5.85;2.08;;;;;;;0.39;94.72;100040.06;5028335;28;20018;-67
2022/01/21 04:01:52;;;;;;;4.13;1.33;;;;;;;0.35;95.25;100039.06;5028474;28;20124;-67
2022/01/21 04:04:17;;;;;;;12.80;2.22;;;;;;;0.27;94.85;100049.91;5028598;28;20056;-67
2022/01/21 04:06:43;;;;;;;3.80;1.33;;;;;;;0.15;94.89;100049.38;5028046;28;20085;-67
2022/01/21 04:09:08;;;;;;;2.13;1.50;;;;;;;0.03;95.14;100069.53;5028343;28;20088;-67
2022/01/21 04:11:34;;;;;;;11.38;1.75;;;;;;;-0.25;95.08;100062.25;5028951;28;20030;-67
2022/01/21 04:13:59;;;;;;;12.15;1.75;;;;;;;-0.35;95.75;100071.28;5029426;28;20029;-67
2022/01/21 04:16:25;;;;;;;5.28;1.33;;;;;;;-0.43;96.34;100077.81;5029526;28;20340;-67
2022/01/21 04:18:50;;;;;;;20.52;1.75;;;;;;;-0.49;96.37;100079.22;5029084;28;20387;-67
2022/01/21 04:21:16;;;;;;;1.83;1.08;;;;;;;-0.51;96.60;100084.31;5029020;28;20037;-67
2022/01/21 04:23:41;;;;;;;7.38;1.48;;;;;;;-0.52;97.30;100087.72;5028989;28;20218;-67
2022/01/21 04:26:07;;;;;;;10.23;2.20;;;;;;;-0.49;97.14;100080.09;5029008;28;20030;-67
2022/01/21 04:28:33;;;;;;;4.80;1.58;;;;;;;-0.56;97.15;100085.81;5028598;28;20045;-67
2022/01/21 04:30:59;;;;;;;5.20;1.95;;;;;;;-0.58;97.37;100077.09;5028950;28;20077;-67
2022/01/21 04:33:24;;;;;;;5.38;1.33;;;;;;;-0.60;97.53;100081.28;5029224;28;20021;-67
2022/01/21 04:35:50;;;;;;;5.88;1.35;;;;;;;-0.69;97.81;100080.84;5028940;28;20025;-67
2022/01/21 04:38:19;;;;;;;2.88;1.17;;;;;;;-0.73;97.91;100076.34;5028071;28;20021;-67
2022/01/21 04:40:56;;;;;;;3.50;1.65;;;;;;;-0.75;97.51;100078.00;5027497;28;20032;-67
2022/01/21 04:48:50;;;;;;;9.70;2.00;;;;;;;-0.85;98.81;100074.91;5027224;28;20025;-67
2022/01/21 04:51:18;;;;;;;3.42;1.55;;;;;;;-0.82;98.84;100078.50;5027146;28;20213;-67
2022/01/21 04:53:46;;;;;;;4.57;1.45;;;;;;;-0.75;98.99;100082.28;5026880;28;20013;-67
2022/01/21 04:56:13;;;;;;;4.40;2.35;;;;;;;-0.62;98.92;100089.78;5027293;28;20017;-67
2022/01/21 04:58:40;;;;;;;3.80;1.60;;;;;;;-0.57;98.99;100084.00;5025172;28;20017;-67
2022/01/21 05:01:06;;;;;;;26.00;2.55;;;;;;;-0.49;98.96;100076.63;5027170;28;20385;-67
2022/01/21 05:03:33;;;;;;;3.05;1.50;;;;;;;-0.40;98.57;100088.28;5027462;28;20014;-67
2022/01/21 05:06:00;;;;;;;5.60;2.45;;;;;;;-0.40;98.57;100093.47;5027269;28;20213;-67
2022/01/21 05:08:31;;;;;;;3.28;1.80;;;;;;;-0.38;98.69;100090.97;5027174;28;20014;-67
2022/01/21 05:10:57;;;;;;;10.90;1.25;;;;;;;-0.37;98.78;100093.63;5021668;28;20030;-67
2022/01/21 05:13:26;;;;;;;19.48;2.67;;;;;;;-0.32;98.47;100096.38;5026914;28;20026;-67
2022/01/21 05:18:25;;;;;;;2.83;1.27;;;;;;;-0.17;97.66;100102.28;5026137;28;20086;-67
2022/01/21 05:20:51;;;;;;;4.93;1.80;;;;;;;-0.33;97.46;100100.69;5025648;28;20034;-67
2022/01/21 05:23:17;;;;;;;10.00;3.50;;;;;;;-0.45;98.04;100097.53;5025465;28;20076;-67
2022/01/21 05:25:42;;;;;;;17.40;1.85;;;;;;;-0.56;98.51;100101.31;5025281;28;20037;-67
2022/01/21 05:28:08;;;;;;;8.57;1.20;;;;;;;-0.55;98.51;100113.44;5025153;28;20038;-67
2022/01/21 05:30:33;;;;;;;5.80;2.10;;;;;;;-0.64;98.29;100102.66;5025007;28;20117;-67
2022/01/21 05:32:59;;;;;;;2.35;1.35;;;;;;;-0.69;98.78;100104.09;5024940;28;20068;-67
2022/01/21 05:35:25;;;;;;;9.00;1.70;;;;;;;-0.73;98.61;100116.84;5025848;28;20029;-67
2022/01/21 05:37:50;;;;;;;17.08;2.72;;;;;;;-0.79;98.91;100108.78;5024745;28;20022;-66
2022/01/21 05:40:18;;;;;;;10.18;2.88;;;;;;;-0.88;98.77;100111.78;5024296;28;20033;-66
2022/01/21 05:42:43;;;;;;;2.50;1.13;;;;;;;-0.87;99.24;100113.59;5025628;28;20336;-66
2022/01/21 05:47:35;;;;;;;3.38;1.33;;;;;;;-0.98;98.63;100114.75;5023886;28;20026;-66
2022/01/21 05:50:01;;;;;;;8.00;1.92;;;;;;;-1.01;98.64;100111.13;5024367;28;20028;-66
2022/01/21 05:52:36;;;;;;;3.30;1.92;;;;;;;-1.04;98.29;100119.59;5024245;28;20022;-66
2022/01/21 05:55:03;;;;;;;14.07;2.03;;;;;;;-0.83;98.34;100125.84;5024311;28;20075;-66
2022/01/21 05:57:30;;;;;;;9.65;2.40;;;;;;;-0.81;98.54;100129.41;5023493;28;20021;-66
2022/01/21 05:59:55;;;;;;;15.43;2.88;;;;;;;-0.68;98.68;100131.75;5024010;28;20313;-66
2022/01/21 06:02:20;;;;;;;4.88;2.03;;;;;;;-0.59;98.00;100124.44;5015639;28;20022;-66
2022/01/21 06:04:49;;;;;;;4.00;1.58;;;;;;;-0.61;98.22;100131.25;5013085;28;20022;-67
2022/01/21 06:07:15;;;;;;;1.80;1.30;;;;;;;-0.61;98.53;100139.00;5013831;28;20089;-67
2022/01/21 06:09:43;;;;;;;11.48;3.35;;;;;;;-0.58;98.89;100133.97;5014650;28;20022;-67
2022/01/21 06:12:09;;;;;;;3.25;2.28;;;;;;;-0.45;99.13;100125.97;5021016;28;20036;-67
2022/01/21 06:14:36;;;;;;;8.00;2.15;;;;;;;-0.37;98.29;100139.28;5015510;28;20030;-67
2022/01/21 06:17:02;;;;;;;8.40;2.15;;;;;;;-0.40;98.14;100149.47;5004238;28;20311;-67
2022/01/21 06:19:27;;;;;;;6.25;1.30;;;;;;;-0.37;98.27;100154.78;5004235;28;20030;-67
2022/01/21 06:21:53;;;;;;;11.85;2.88;;;;;;;-0.36;98.29;100156.56;5004428;28;20328;-67
2022/01/21 06:24:18;;;;;;;6.25;1.98;;;;;;;-0.33;98.93;100154.13;5004067;28;20061;-67
2022/01/21 06:26:44;;;;;;;12.13;1.98;;;;;;;-0.25;99.14;100151.06;5003545;28;20021;-67
2022/01/21 06:29:10;;;;;;;2.22;1.35;;;;;;;-0.25;99.01;100151.06;5004310;28;20026;-67
2022/01/21 06:31:35;;;;;;;9.55;2.20;;;;;;;-0.19;98.54;100156.53;5003928;28;20381;-67
2022/01/21 06:34:01;;;;;;;3.25;1.77;;;;;;;-0.26;98.53;100145.81;5003958;28;20022;-67
2022/01/21 06:36:26;;;;;;;39.78;10.63;;;;;;;-0.21;98.72;100153.00;5004927;28;20022;-67
2022/01/21 06:38:52;;;;;;;6.03;3.03;;;;;;;-0.17;98.58;100151.44;5004970;28;20033;-67
2022/01/21 06:41:17;;;;;;;14.82;2.80;;;;;;;-0.25;98.20;100155.38;5004726;28;20290;-67
2022/01/21 06:43:43;;;;;;;22.25;3.33;;;;;;;-0.11;98.50;100155.22;5004373;28;20022;-67
2022/01/21 06:46:12;;;;;;;14.63;5.50;;;;;;;-0.16;97.98;100156.69;5004691;28;20034;-67
2022/01/21 06:48:38;;;;;;;13.68;4.55;;;;;;;-0.27;98.36;100168.25;5004701;28;20030;-67
2022/01/21 06:51:03;;;;;;;17.13;3.08;;;;;;;-0.17;98.67;100170.44;5004595;28;20034;-67
2022/01/21 06:53:28;;;;;;;8.95;3.75;;;;;;;-0.08;98.94;100169.97;5004632;28;20384;-67
2022/01/21 06:55:54;;;;;;;13.35;4.03;;;;;;;-0.08;98.96;100160.53;5004577;28;20026;-67
2022/01/21 06:58:19;;;;;;;11.50;3.63;;;;;;;0.03;98.34;100167.91;5004529;28;20195;-67
2022/01/21 07:00:45;;;;;;;14.60;4.15;;;;;;;0.04;98.00;100181.78;5004537;28;20330;-67
2022/01/21 07:03:10;;;;;;;12.73;4.13;;;;;;;-0.05;98.61;100194.31;5004498;28;20372;-67
2022/01/21 07:05:36;;;;;;;11.00;3.80;;;;;;;-0.12;98.80;100189.63;5004478;28;20041;-67
2022/01/21 07:08:02;;;;;;;6.80;3.47;;;;;;;-0.12;98.58;100184.47;5004358;28;20089;-67
2022/01/21 07:10:29;;;;;;;12.43;1.73;;;;;;;-0.15;98.80;100188.63;5004416;28;20341;-67
2022/01/21 07:12:55;;;;;;;3.78;1.95;;;;;;;-0.10;98.94;100190.63;5004311;28;20035;-67
2022/01/21 07:15:20;;;;;;;7.45;2.22;;;;;;;0.01;99.16;100207.50;5004413;28;20026;-67
2022/01/21 07:17:48;;;;;;;5.03;1.45;;;;;;;0.07;98.85;100195.69;5004368;28;20069;-67
2022/01/21 07:20:15;;;;;;;6.90;2.05;;;;;;;0.18;98.69;100197.09;5004300;28;20037;-67
2022/01/21 07:22:40;;;;;;;6.40;2.67;;;;;;;0.15;98.26;100194.34;5004343;28;20022;-67
2022/01/21 07:25:06;;;;;;;7.82;3.22;;;;;;;0.17;98.85;100203.06;5004230;28;20037;-67
2022/01/21 07:27:32;;;;;;;16.13;3.28;;;;;;;0.22;98.62;100207.63;5004145;28;20046;-67
2022/01/21 07:29:58;;;;;;;12.07;2.80;;;;;;;0.13;98.11;100195.97;5004339;28;20326;-67
2022/01/21 07:32:23;;;;;;;9.98;3.40;;;;;;;0.15;98.29;100199.53;5004234;28;20030;-67
2022/01/21 07:34:49;;;;;;;25.65;8.90;;;;;;;0.17;98.56;100203.06;5004251;28;20026;-67
2022/01/21 07:37:14;;;;;;;18.77;9.82;;;;;;;0.20;98.15;100208.38;5004250;28;20034;-67
2022/01/21 07:39:40;;;;;;;25.13;7.15;;;;;;;0.25;98.36;100212.09;5004196;28;20088;-67
2022/01/21 07:42:06;;;;;;;15.10;7.20;;;;;;;0.28;98.59;100201.88;5004153;28;20026;-67
2022/01/21 07:44:31;;;;;;;15.88;3.17;;;;;;;0.42;98.35;100205.97;5004412;28;20030;-67
2022/01/21 07:46:56;;;;;;;3.85;2.13;;;;;;;0.50;97.92;100204.63;5004128;28;20245;-67
2022/01/21 07:49:22;;;;;;;7.40;1.92;;;;;;;0.32;98.02;100203.78;5004083;28;20030;-67
2022/01/21 07:51:47;;;;;;;6.15;2.55;;;;;;;0.27;98.29;100197.47;5004269;28;20030;-67
2022/01/21 07:54:13;;;;;;;12.55;1.63;;;;;;;0.23;98.48;100205.94;5004105;28;20033;-67
2022/01/21 07:56:39;;;;;;;10.52;3.55;;;;;;;0.33;98.42;100210.72;5004032;28;20030;-67
2022/01/21 07:59:10;;;;;;;6.80;2.65;;;;;;;0.50;98.15;100208.06;5004020;28;20037;-67
2022/01/21 08:01:36;;;;;;;9.93;1.98;;;;;;;0.65;97.89;100200.09;5004016;28;20023;-67
2022/01/21 08:04:02;;;;;;;4.88;2.67;;;;;;;0.70;97.73;100208.97;5004001;28;20073;-67
2022/01/21 08:06:28;;;;;;;20.40;3.15;;;;;;;0.68;98.01;100205.41;5003976;28;20030;-67
2022/01/21 08:08:54;;;;;;;11.32;3.08;;;;;;;0.82;97.58;100209.50;5003938;28;20274;-67
2022/01/21 08:11:20;;;;;;;11.32;2.78;;;;;;;0.85;97.74;100199.28;5004131;28;20069;-67
2022/01/21 08:13:46;;;;;;;9.63;2.92;;;;;;;0.95;97.72;100204.03;5003938;28;20030;-67
2022/01/21 08:16:11;;;;;;;12.05;3.10;;;;;;;1.10;97.78;100199.50;5003944;28;20030;-67
2022/01/21 08:18:37;;;;;;;11.60;2.70;;;;;;;1.15;97.00;100200.59;5003865;28;20026;-67
2022/01/21 08:21:02;;;;;;;8.13;2.55;;;;;;;1.12;96.34;100190.09;5006086;28;20094;-67
2022/01/21 08:23:28;;;;;;;29.85;8.23;;;;;;;1.08;96.79;100198.56;5007337;28;20384;-67
2022/01/21 08:25:53;;;;;;;16.98;5.07;;;;;;;1.07;97.38;100208.03;5007243;28;20086;-67
2022/01/21 08:28:19;;;;;;;13.10;5.88;;;;;;;1.25;96.91;100208.81;5007116;28;20046;-67
2022/01/21 08:30:44;;;;;;;18.75;6.35;;;;;;;1.35;96.75;100220.44;5007102;28;20322;-67
2022/01/21 08:33:10;;;;;;;18.42;6.53;;;;;;;1.31;96.54;100223.75;5007213;28;20049;-67
2022/01/21 08:35:36;;;;;;;14.65;5.15;;;;;;;1.38;96.83;100225.78;5007123;28;20026;-67
2022/01/21 08:38:02;;;;;;;10.02;2.45;;;;;;;1.58;96.31;100219.72;5007308;28;20023;-67
2022/01/21 08:40:27;;;;;;;9.38;3.47;;;;;;;1.60;95.81;100218.06;5007034;28;20044;-67
2022/01/21 08:42:53;;;;;;;7.00;2.67;;;;;;;1.71;95.07;100209.88;5007238;28;20289;-67
2022/01/21 08:45:19;;;;;;;17.55;2.05;;;;;;;1.80;95.10;100217.16;5006951;28;20026;-67
2022/01/21 08:47:44;;;;;;;4.80;1.50;;;;;;;1.92;94.66;100223.72;5006884;28;20218;-67
2022/01/21 08:50:13;;;;;;;25.20;3.33;;;;;;;2.00;94.28;100216.25;5006833;28;20030;-67
2022/01/21 08:52:41;;;;;;;4.57;2.17;;;;;;;2.08;94.01;100220.91;5006696;28;20085;-67
2022/01/21 08:55:12;;;;;;;7.38;2.50;;;;;;;2.17;93.30;100222.97;5006990;28;20050;-67
2022/01/21 08:57:41;;;;;;;16.08;3.00;;;;;;;2.27;92.70;100217.31;5006955;28;20085;-67
2022/01/21 09:00:09;;;;;;;5.63;2.05;;;;;;;2.30;92.73;100214.81;5006641;28;20355;-67
2022/01/21 09:02:34;;;;;;;11.30;2.50;;;;;;;2.32;92.28;100223.56;5006507;28;20061;-67
2022/01/21 09:05:00;;;;;;;6.55;2.47;;;;;;;2.40;91.85;100229.94;5006578;28;20034;-67
2022/01/21 09:07:25;;;;;;;9.00;1.75;;;;;;;2.50;92.05;100242.44;5006523;28;20069;-67
2022/01/21 09:09:51;;;;;;;9.05;1.95;;;;;;;2.60;91.87;100234.19;5009258;28;20266;-67
2022/01/21 09:12:16;;;;;;;10.32;2.85;;;;;;;2.74;90.64;100227.75;5020955;28;20061;-67
2022/01/21 09:14:42;;;;;;;10.63;3.88;;;;;;;2.82;89.83;100225.44;5015066;28;20034;-67
2022/01/21 09:17:07;;;;;;;11.43;2.80;;;;;;;2.81;89.61;100224.56;5004540;28;20026;-67
2022/01/21 09:19:33;;;;;;;9.98;2.80;;;;;;;2.87;89.76;100235.19;5005358;28;20030;-67
2022/01/21 09:22:02;;;;;;;18.45;3.47;;;;;;;2.89;88.83;100233.53;5005590;28;20029;-67
2022/01/21 09:24:28;;;;;;;13.20;2.88;;;;;;;2.85;88.77;100229.03;5005208;28;20037;-67
2022/01/21 09:26:53;;;;;;;12.52;2.50;;;;;;;2.89;89.63;100233.53;5005026;28;20022;-67
2022/01/21 09:29:18;;;;;;;8.55;2.55;;;;;;;2.90;89.21;100230.09;5004764;28;20032;-67
2022/01/21 09:31:44;;;;;;;9.82;2.65;;;;;;;3.05;88.75;100230.66;5003936;28;20125;-67
2022/01/21 09:34:10;;;;;;;17.25;2.78;;;;;;;3.86;86.56;100238.66;5005316;28;20176;-67
2022/01/21 09:36:36;;;;;;;11.55;2.10;;;;;;;4.33;83.98;100243.66;5005029;28;20037;-67
2022/01/21 09:39:02;;;;;;;7.05;2.53;;;;;;;4.29;83.61;100246.09;5004977;28;20094;-67
2022/01/21 09:41:29;;;;;;;14.23;2.85;;;;;;;4.08;84.00;100243.72;5004748;28;20022;-67
2022/01/21 09:43:56;;;;;;;20.83;3.75;;;;;;;4.08;84.88;100241.09;5004899;28;20037;-67
2022/01/21 09:46:31;;;;;;;14.73;3.38;;;;;;;4.04;84.26;100244.47;5005051;28;20095;-67
2022/01/21 09:49:07;;;;;;;12.02;3.13;;;;;;;4.13;84.36;100252.56;5004796;28;20061;-67
2022/01/21 09:51:35;;;;;;;14.10;3.35;;;;;;;4.47;83.09;100250.16;5004663;28;20030;-67
2022/01/21 09:54:05;;;;;;;12.63;2.78;;;;;;;4.39;82.72;100251.66;5004575;28;20029;-67
2022/01/21 09:56:32;;;;;;;13.02;2.28;;;;;;;4.30;83.44;100253.97;5004495;28;20028;-67
2022/01/21 09:58:59;;;;;;;11.32;3.10;;;;;;;4.17;83.48;100244.00;5004589;28;20026;-67
2022/01/21 10:01:26;;;;;;;10.30;2.88;;;;;;;4.16;83.56;100252.66;5004549;28;20018;-67
2022/01/21 10:03:52;;;;;;;12.88;2.70;;;;;;;4.19;84.15;100249.28;5004517;28;20053;-67
2022/01/21 10:06:23;;;;;;;17.90;5.60;;;;;;;4.24;84.13;100264.22;5004468;28;20030;-67
2022/01/21 10:08:50;;;;;;;26.48;3.85;;;;;;;4.38;83.08;100268.16;5004582;28;20030;-67
2022/01/21 10:11:15;;;;;;;14.77;3.75;;;;;;;4.59;83.82;100274.84;5004309;28;20026;-67
2022/01/21 10:13:43;;;;;;;18.92;2.70;;;;;;;4.77;82.92;100263.22;5024083;28;20085;-67
2022/01/21 10:16:09;;;;;;;13.70;3.03;;;;;;;4.76;82.29;100255.34;5040308;28;20075;-67
2022/01/21 10:18:35;;;;;;;23.45;3.30;;;;;;;4.82;82.34;100255.53;5023820;28;20024;-67
2022/01/21 10:21:04;;;;;;;9.43;2.42;;;;;;;4.71;82.82;100252.59;5026990;28;20041;-67
2022/01/21 10:23:33;;;;;;;11.98;3.60;;;;;;;4.76;82.77;100245.81;5043620;28;20325;-67
2022/01/21 10:26:11;;;;;;;11.48;3.50;;;;;;;4.28;82.83;100239.13;5043566;28;20025;-67
2022/01/21 10:28:40;;;;;;;12.23;3.10;;;;;;;4.35;83.20;100241.97;5043383;28;20218;-67
2022/01/21 10:31:08;;;;;;;18.08;4.20;;;;;;;4.34;82.72;100240.19;5027012;28;20072;-67
2022/01/21 10:33:39;;;;;;;18.52;4.28;;;;;;;4.34;84.42;100240.19;5023247;28;20287;-67
2022/01/21 10:36:28;;;;;;;8.68;2.75;;;;;;;4.21;83.74;100232.84;5023368;28;20383;-67
2022/01/21 10:39:09;;;;;;;12.40;2.83;;;;;;;4.32;84.27;100235.78;5013763;28;20026;-67
2022/01/21 10:41:39;;;;;;;17.92;3.72;;;;;;;4.25;83.88;100224.25;5014369;28;20017;-67
2022/01/21 10:44:12;;;;;;;30.23;5.32;;;;;;;4.24;84.19;100227.72;5014060;28;20030;-67
2022/01/21 10:46:46;;;;;;;12.57;2.58;;;;;;;4.23;83.20;100225.06;5026738;28;20032;-67
2022/01/21 10:49:13;;;;;;;9.70;2.75;;;;;;;4.20;83.92;100232.78;5043502;28;20366;-67
2022/01/21 10:51:41;;;;;;;16.83;2.75;;;;;;;4.40;83.44;100229.94;5043076;28;20060;-67
2022/01/21 10:54:28;;;;;;;23.23;3.30;;;;;;;4.55;82.99;100233.88;5043092;28;20028;-67
2022/01/21 10:57:17;;;;;;;15.80;2.50;;;;;;;4.86;81.75;100233.91;5043145;28;20033;-67
2022/01/21 10:59:58;;;;;;;12.05;2.72;;;;;;;5.12;81.04;100236.41;5019218;28;20081;-67
2022/01/21 11:02:34;;;;;;;9.55;1.80;;;;;;;5.07;81.13;100227.59;5003900;28;20029;-67
2022/01/21 11:05:07;;;;;;;15.05;3.03;;;;;;;5.18;79.91;100231.34;5003600;28;20018;-67
2022/01/21 11:07:50;;;;;;;16.90;2.75;;;;;;;4.99;80.23;100230.78;5003866;28;20030;-67
2022/01/21 11:13:00;;;;;;;12.95;1.92;;;;;;;4.89;81.43;100228.78;5003324;28;20038;-67
2022/01/21 11:15:38;;;;;;;8.07;2.08;;;;;;;4.88;80.82;100219.19;5003386;28;20080;-67
2022/01/21 11:18:06;;;;;;;7.82;2.03;;;;;;;4.91;81.12;100220.19;5003714;28;20126;-67
2022/01/21 11:20:38;;;;;;;6.10;2.25;;;;;;;4.94;80.09;100216.75;5003431;28;20026;-67
2022/01/21 11:23:05;;;;;;;5.65;1.83;;;;;;;4.98;80.06;100210.78;5003382;28;20085;-67
2022/01/21 11:25:44;;;;;;;15.45;2.45;;;;;;;5.43;80.79;100217.22;5003188;28;20052;-67
2022/01/21 11:28:14;;;;;;;16.27;2.60;;;;;;;5.38;79.61;100213.63;5003215;28;20107;-67
2022/01/21 11:30:40;;;;;;;13.43;3.13;;;;;;;5.28;79.75;100216.84;5009680;28;20049;-67
2022/01/21 11:33:06;;;;;;;9.25;1.88;;;;;;;5.42;79.72;100218.97;5032440;28;20021;-67
2022/01/21 11:35:32;;;;;;;9.45;1.63;;;;;;;5.38;79.64;100219.72;5030882;28;20310;-67
2022/01/21 11:38:01;;;;;;;15.77;2.30;;;;;;;5.42;80.07;100215.47;5022704;28;20029;-67
2022/01/21 11:40:26;;;;;;;8.55;2.97;;;;;;;5.37;79.85;100211.84;5022108;28;20034;-67
2022/01/21 11:42:54;;;;;;;8.07;2.67;;;;;;;5.30;79.65;100220.34;5022557;28;20018;-67
2022/01/21 11:46:18;;;;;;;15.65;2.13;;;;;;;5.28;79.96;100216.84;5022377;28;20026;-67
2022/01/21 11:50:40;;;;;;;;;;;;;;;5.23;79.91;100216.72;5015102;28;20030;-67
2022/01/21 11:53:05;;;;;;;5.22;1.67;;;;;;;5.21;79.44;100210.56;5022188;28;19948;-67
2022/01/21 11:55:34;;;;;;;13.55;2.35;;;;;;;5.13;77.99;100211.22;5024371;28;20033;-67
2022/01/21 11:58:16;;;;;;;17.42;2.40;;;;;;;5.24;79.23;100209.75;5026540;28;20037;-67
2022/01/21 12:00:43;;;;;;;19.52;3.47;;;;;;;5.44;78.53;100219.88;5026059;28;20331;-67
2022/01/21 12:03:08;;;;;;;21.08;2.92;;;;;;;5.54;78.55;100215.78;5025370;28;20022;-67
2022/01/21 12:05:34;;;;;;;13.73;2.60;;;;;;;5.40;78.28;100209.31;5025039;28;20033;-67
2022/01/21 12:08:04;;;;;;;8.23;2.47;;;;;;;5.33;78.70;100204.78;5025980;28;20041;-67
2022/01/21 12:10:32;;;;;;;12.90;2.03;;;;;;;5.14;78.12;100208.63;5022798;28;20051;-67
2022/01/21 12:13:09;;;;;;;7.45;2.15;;;;;;;5.06;79.52;100202.31;5025686;28;20021;-67
2022/01/21 12:18:55;;;;;;;6.38;2.72;;;;;;;4.64;80.76;100195.91;5024437;28;20375;-67
2022/01/21 12:21:32;;;;;;;7.50;2.10;;;;;;;4.53;81.69;100201.66;5012618;28;20033;-67
2022/01/21 12:23:59;;;;;;;9.38;2.42;;;;;;;4.53;81.45;100204.25;5024976;28;20052;-67
2022/01/21 12:26:29;;;;;;;15.38;2.05;;;;;;;4.60;81.35;100193.16;5021276;28;20089;-67
2022/01/21 12:28:56;;;;;;;9.15;3.08;;;;;;;4.59;82.28;100191.41;5024989;28;20046;-67
2022/01/21 12:31:24;;;;;;;10.55;2.33;;;;;;;4.63;81.65;100185.44;5024312;28;20044;-67
2022/01/21 12:36:19;;;;;;;5.32;1.95;;;;;;;4.82;81.09;100185.09;5025073;28;20037;-67